Time;durP1;ratioP1;P1;durP2;ratioP2;P2;SDS_P1;SDS_P2;PMS_P1;PMS_P2;Temp;Humidity;BMP_temperature;BMP_pressure;BME280_temperature;BME280_humidity;BME280_pressure;Samples;Min_cycle;Max_cycle;Signal;HPM_P1;HPM_P2
2023/04/17 00:00:05;;;;;;;31.20;12.68;;;12.00;91.10;;;;;;5114796;28;20084;-76
2023/04/17 00:02:30;;;;;;;28.35;12.85;;;12.00;91.20;;;;;;5114957;28;20016;-76
2023/04/17 00:04:56;;;;;;;27.30;13.38;;;12.10;91.30;;;;;;5114741;28;20055;-76
2023/04/17 00:07:22;;;;;;;29.42;13.10;;;12.10;91.30;;;;;;5096942;28;20026;-76
2023/04/17 00:09:48;;;;;;;29.67;13.20;;;12.10;91.30;;;;;;5113733;28;20031;-76
2023/04/17 00:12:14;;;;;;;28.42;13.20;;;12.10;91.40;;;;;;5096657;28;20088;-76
2023/04/17 00:14:40;;;;;;;30.00;13.88;;;12.00;91.40;;;;;;5114538;28;20032;-76
2023/04/17 00:17:06;;;;;;;25.80;11.82;;;12.10;91.40;;;;;;5113719;28;20081;-76
2023/04/17 00:19:31;;;;;;;26.95;12.63;;;12.00;91.40;;;;;;5113471;28;20056;-76
2023/04/17 00:21:57;;;;;;;26.45;13.05;;;12.00;91.40;;;;;;5114446;28;20028;-76
2023/04/17 00:24:23;;;;;;;28.42;13.35;;;12.00;91.40;;;;;;5114418;28;20048;-76
2023/04/17 00:26:48;;;;;;;27.95;13.70;;;12.00;91.40;;;;;;5113541;28;20024;-76
2023/04/17 00:29:14;;;;;;;27.52;12.82;;;12.00;91.40;;;;;;5113320;28;20036;-76
2023/04/17 00:31:40;;;;;;;28.10;13.20;;;12.00;91.40;;;;;;5113322;28;20028;-76
2023/04/17 00:34:05;;;;;;;28.23;12.65;;;12.00;91.40;;;;;;5113289;28;20032;-76
2023/04/17 00:36:31;;;;;;;26.45;11.88;;;12.00;91.40;;;;;;5114268;28;20031;-76
2023/04/17 00:38:58;;;;;;;26.50;12.73;;;12.00;91.40;;;;;;5114212;28;20034;-76
2023/04/17 00:41:23;;;;;;;27.50;12.88;;;12.00;91.50;;;;;;5114210;28;20035;-76
2023/04/17 00:43:49;;;;;;;25.85;12.52;;;12.00;91.50;;;;;;5114131;28;20032;-76
2023/04/17 00:46:15;;;;;;;23.35;11.95;;;12.00;91.50;;;;;;5113182;28;20024;-76
2023/04/17 00:48:43;;;;;;;24.67;12.38;;;12.00;91.40;;;;;;5114070;28;20028;-76
2023/04/17 00:51:09;;;;;;;28.00;12.27;;;12.00;91.50;;;;;;5074338;28;1127550;-76
2023/04/17 00:53:35;;;;;;;25.13;12.25;;;12.00;91.50;;;;;;5114836;28;20036;-76
2023/04/17 00:56:05;;;;;;;24.63;11.93;;;11.90;91.40;;;;;;5114074;28;20461;-76
2023/04/17 00:58:31;;;;;;;27.33;12.43;;;11.90;91.40;;;;;;5115032;28;20013;-76
2023/04/17 01:00:58;;;;;;;26.13;12.73;;;11.90;91.40;;;;;;5114795;28;20022;-76
2023/04/17 01:03:23;;;;;;;27.42;11.98;;;11.90;91.40;;;;;;5113694;28;20054;-76
2023/04/17 01:05:50;;;;;;;23.63;11.73;;;11.90;91.40;;;;;;5114655;28;20032;-76
2023/04/17 01:08:17;;;;;;;23.17;11.88;;;11.90;91.80;;;;;;5114653;28;20058;-76
2023/04/17 01:10:42;;;;;;;25.65;12.35;;;11.90;91.40;;;;;;5114568;28;20043;-76
2023/04/17 01:13:08;;;;;;;22.83;12.32;;;11.90;91.40;;;;;;5113417;28;20028;-76
2023/04/17 01:15:35;;;;;;;27.05;12.50;;;11.90;91.30;;;;;;5113530;28;20042;-76
2023/04/17 01:18:02;;;;;;;26.67;13.05;;;11.90;91.40;;;;;;5114470;28;20020;-76
2023/04/17 01:20:31;;;;;;;25.30;12.50;;;11.90;91.50;;;;;;5114395;28;20029;-76
2023/04/17 01:22:58;;;;;;;27.77;12.80;;;11.90;91.50;;;;;;5114397;28;20024;-76
2023/04/17 01:25:25;;;;;;;26.85;13.32;;;11.90;91.50;;;;;;5114290;28;20081;-76
2023/04/17 01:27:50;;;;;;;29.30;13.07;;;11.90;91.50;;;;;;5114271;28;20046;-76
2023/04/17 01:30:16;;;;;;;27.67;13.07;;;11.90;91.50;;;;;;5114199;28;20024;-76
2023/04/17 01:32:42;;;;;;;26.30;12.90;;;11.90;91.50;;;;;;5114167;28;20028;-76
2023/04/17 01:35:08;;;;;;;27.25;12.73;;;11.90;91.50;;;;;;5113962;28;20100;-76
2023/04/17 01:37:34;;;;;;;26.73;12.98;;;11.90;91.50;;;;;;5113122;28;20035;-76
2023/04/17 01:40:00;;;;;;;26.17;12.10;;;11.90;91.60;;;;;;5114075;28;20083;-76
2023/04/17 01:42:25;;;;;;;24.70;12.45;;;11.90;91.50;;;;;;5113008;28;20551;-76
2023/04/17 01:44:51;;;;;;;28.00;13.40;;;11.90;91.60;;;;;;5113956;28;20039;-76
2023/04/17 01:47:17;;;;;;;26.75;12.68;;;11.90;91.50;;;;;;5113972;28;20035;-76
2023/04/17 01:49:42;;;;;;;24.23;11.48;;;11.90;91.50;;;;;;5113901;28;20036;-76
2023/04/17 01:52:08;;;;;;;28.65;13.27;;;11.90;91.50;;;;;;5113675;28;20074;-76
2023/04/17 01:54:34;;;;;;;24.63;11.75;;;11.90;91.50;;;;;;5113758;28;20029;-76
2023/04/17 01:57:00;;;;;;;25.15;11.93;;;11.90;91.50;;;;;;5113793;28;20023;-76
2023/04/17 01:59:25;;;;;;;26.90;12.55;;;11.80;91.50;;;;;;5113772;28;20080;-76
2023/04/17 02:01:52;;;;;;;27.40;12.75;;;11.80;91.50;;;;;;5112678;28;20020;-76
2023/04/17 02:04:18;;;;;;;27.98;12.65;;;11.80;91.50;;;;;;5112666;28;20395;-76
2023/04/17 02:06:43;;;;;;;25.92;12.57;;;11.80;91.50;;;;;;5113663;28;20088;-76
2023/04/17 02:09:09;;;;;;;26.50;12.60;;;11.70;91.50;;;;;;5112561;28;20036;-76
2023/04/17 02:11:34;;;;;;;25.60;12.60;;;11.70;91.60;;;;;;5113595;28;20031;-76
2023/04/17 02:14:00;;;;;;;27.88;12.57;;;11.70;91.60;;;;;;5113538;28;20039;-76
2023/04/17 02:16:27;;;;;;;27.63;12.38;;;11.70;91.60;;;;;;5113678;28;20046;-76
2023/04/17 02:18:53;;;;;;;29.55;12.55;;;11.70;91.70;;;;;;5113533;28;20023;-76
2023/04/17 02:21:19;;;;;;;28.15;12.23;;;11.60;91.70;;;;;;5113500;28;20028;-76
2023/04/17 02:23:44;;;;;;;25.67;11.43;;;11.70;91.80;;;;;;5113509;28;20055;-76
2023/04/17 02:26:10;;;;;;;27.02;12.25;;;11.70;91.80;;;;;;5112522;28;20054;-76
2023/04/17 02:28:36;;;;;;;26.05;11.88;;;11.70;91.80;;;;;;5113433;28;20035;-76
2023/04/17 02:31:05;;;;;;;27.45;12.35;;;11.70;91.80;;;;;;5112551;28;20070;-76
2023/04/17 02:33:31;;;;;;;28.42;12.98;;;11.60;91.70;;;;;;5113248;28;20020;-76
2023/04/17 02:35:56;;;;;;;24.50;12.48;;;11.60;91.80;;;;;;5112484;28;20048;-76
2023/04/17 02:38:22;;;;;;;28.48;12.82;;;11.60;91.80;;;;;;5113310;28;20059;-76
2023/04/17 02:40:47;;;;;;;25.92;11.55;;;11.60;91.80;;;;;;5113317;28;20020;-76
2023/04/17 02:43:13;;;;;;;29.33;12.32;;;11.60;91.80;;;;;;5113298;28;20393;-76
2023/04/17 02:45:39;;;;;;;27.45;12.25;;;11.60;91.80;;;;;;5113277;28;20032;-76
2023/04/17 02:48:04;;;;;;;24.08;12.57;;;11.60;91.90;;;;;;5112254;28;20032;-76
2023/04/17 02:50:30;;;;;;;28.20;12.73;;;11.50;91.90;;;;;;5113052;28;20028;-76
2023/04/17 02:52:56;;;;;;;27.90;12.07;;;11.50;91.90;;;;;;5112242;28;20089;-76
2023/04/17 02:55:21;;;;;;;28.27;12.98;;;11.50;92.00;;;;;;5113164;28;20059;-76
2023/04/17 02:57:47;;;;;;;30.63;13.00;;;11.50;91.90;;;;;;5113139;28;20016;-76
2023/04/17 03:00:13;;;;;;;26.17;12.75;;;11.50;92.00;;;;;;5113159;28;20472;-76
2023/04/17 03:02:40;;;;;;;32.47;13.15;;;11.60;92.00;;;;;;5113253;28;20020;-76
2023/04/17 03:05:05;;;;;;;30.52;12.40;;;11.50;92.00;;;;;;5113112;28;20032;-76
2023/04/17 03:07:31;;;;;;;30.95;13.75;;;11.50;92.00;;;;;;5112199;28;20024;-76
2023/04/17 03:09:57;;;;;;;31.65;13.85;;;11.50;92.00;;;;;;5113044;28;20025;-76
2023/04/17 03:12:23;;;;;;;32.92;13.52;;;11.50;92.00;;;;;;5113033;28;20031;-76
2023/04/17 03:14:49;;;;;;;30.88;14.60;;;11.50;91.80;;;;;;5112909;28;20024;-76
2023/04/17 03:17:15;;;;;;;30.63;13.68;;;11.50;92.10;;;;;;5112958;28;20017;-76
2023/04/17 03:19:41;;;;;;;29.55;13.65;;;11.50;92.10;;;;;;5114294;28;20020;-76
2023/04/17 03:22:07;;;;;;;29.15;13.20;;;11.50;92.10;;;;;;5116629;28;20028;-76
2023/04/17 03:24:32;;;;;;;29.98;13.32;;;11.50;92.10;;;;;;5115601;28;20031;-76
2023/04/17 03:26:59;;;;;;;28.83;13.52;;;11.40;92.10;;;;;;5115591;28;20062;-76
2023/04/17 03:29:25;;;;;;;30.75;13.20;;;11.50;92.20;;;;;;5115520;28;20048;-76
2023/04/17 03:31:51;;;;;;;32.75;14.15;;;11.40;92.20;;;;;;5116372;28;20400;-76
2023/04/17 03:34:17;;;;;;;36.35;14.00;;;11.40;92.60;;;;;;5116339;28;20028;-76
2023/04/17 03:36:43;;;;;;;34.08;14.82;;;11.40;92.30;;;;;;5115486;28;20020;-76
2023/04/17 03:39:09;;;;;;;36.70;15.25;;;11.40;92.40;;;;;;5116313;28;20042;-76
2023/04/17 03:41:35;;;;;;;33.40;13.38;;;11.40;92.40;;;;;;5115303;28;20016;-76
2023/04/17 03:44:00;;;;;;;31.48;14.80;;;11.40;92.40;;;;;;5115266;28;20024;-76
2023/04/17 03:46:26;;;;;;;35.88;15.70;;;11.40;92.50;;;;;;5116226;28;20028;-76
2023/04/17 03:48:51;;;;;;;33.25;14.50;;;11.40;92.40;;;;;;5115288;28;20074;-76
2023/04/17 03:51:17;;;;;;;36.08;15.20;;;11.40;92.40;;;;;;5114998;28;20096;-76
2023/04/17 03:53:43;;;;;;;37.63;15.40;;;11.40;92.80;;;;;;5115077;28;20464;-76
2023/04/17 03:56:08;;;;;;;33.00;14.57;;;11.40;92.50;;;;;;5116016;28;20035;-76
2023/04/17 03:58:34;;;;;;;34.28;14.50;;;11.40;92.50;;;;;;5115972;28;20553;-76
2023/04/17 04:01:00;;;;;;;33.90;14.27;;;11.40;92.50;;;;;;5115917;28;20072;-76
2023/04/17 04:03:27;;;;;;;35.50;14.82;;;11.40;92.50;;;;;;5115908;28;20031;-76
2023/04/17 04:05:53;;;;;;;35.08;14.43;;;11.40;92.50;;;;;;5115840;28;20053;-76
2023/04/17 04:08:18;;;;;;;35.15;14.60;;;11.40;92.60;;;;;;5115028;28;20040;-76
2023/04/17 04:10:44;;;;;;;40.38;15.40;;;11.40;92.60;;;;;;5115720;28;20043;-76
2023/04/17 04:13:11;;;;;;;34.60;14.73;;;11.30;92.60;;;;;;5115635;28;20024;-76
2023/04/17 04:15:37;;;;;;;36.38;14.95;;;11.40;92.60;;;;;;5114872;28;20092;-76
2023/04/17 04:18:03;;;;;;;34.92;14.98;;;11.40;92.60;;;;;;5115568;28;20068;-76
2023/04/17 04:20:29;;;;;;;33.58;14.77;;;11.40;92.60;;;;;;5115582;28;20028;-76
2023/04/17 04:22:56;;;;;;;42.30;14.98;;;11.30;92.60;;;;;;5115535;28;20042;-76
2023/04/17 04:25:25;;;;;;;35.78;15.18;;;11.40;92.60;;;;;;5115526;28;20087;-76
2023/04/17 04:27:51;;;;;;;37.13;15.65;;;11.40;92.60;;;;;;5115468;28;20385;-76
2023/04/17 04:30:19;;;;;;;35.25;14.23;;;11.40;92.70;;;;;;5114887;28;20023;-76
2023/04/17 04:32:45;;;;;;;35.10;14.63;;;11.40;92.70;;;;;;5114675;28;20020;-76
2023/04/17 04:35:11;;;;;;;34.33;15.85;;;11.40;92.70;;;;;;5115123;28;20441;-76
2023/04/17 04:37:37;;;;;;;32.00;14.43;;;11.40;92.70;;;;;;5114319;28;20079;-76
2023/04/17 04:40:09;;;;;;;32.92;15.48;;;11.40;92.70;;;;;;5114238;28;20051;-76
2023/04/17 04:42:35;;;;;;;;;;;11.40;92.70;;;;;;5114923;28;20024;-76
2023/04/17 04:45:01;;;;;;;29.33;13.90;;;11.40;92.70;;;;;;5115093;28;19904;-76
2023/04/17 04:47:27;;;;;;;32.42;14.18;;;11.30;92.70;;;;;;5115066;28;20028;-76
2023/04/17 04:49:52;;;;;;;35.13;15.35;;;11.30;92.80;;;;;;5114970;28;20036;-76
2023/04/17 04:52:18;;;;;;;35.35;14.60;;;11.20;92.90;;;;;;5113727;28;20052;-76
2023/04/17 04:54:43;;;;;;;30.58;14.43;;;11.20;92.90;;;;;;5113908;28;20086;-76
2023/04/17 04:57:09;;;;;;;34.83;13.77;;;11.20;93.00;;;;;;5113829;28;20027;-76
2023/04/17 04:59:35;;;;;;;29.75;13.75;;;11.20;93.00;;;;;;5114708;28;20031;-77
2023/04/17 05:02:00;;;;;;;30.63;13.40;;;11.10;93.00;;;;;;5114733;28;20032;-77
2023/04/17 05:04:26;;;;;;;32.00;14.38;;;11.20;93.00;;;;;;5114653;28;20024;-77
2023/04/17 05:06:51;;;;;;;34.45;14.43;;;11.20;93.00;;;;;;5114656;28;20083;-77
2023/04/17 05:09:17;;;;;;;29.88;14.18;;;11.20;93.00;;;;;;5113629;28;20028;-77
2023/04/17 05:11:43;;;;;;;30.08;13.65;;;11.20;93.00;;;;;;5114538;28;20028;-77
2023/04/17 05:14:08;;;;;;;31.65;13.52;;;11.10;93.00;;;;;;5114435;28;20035;-77
2023/04/17 05:16:34;;;;;;;27.77;12.82;;;11.10;93.00;;;;;;5114461;28;20036;-76
2023/04/17 05:19:00;;;;;;;32.28;13.73;;;11.20;93.00;;;;;;5114440;28;20028;-77
2023/04/17 05:21:26;;;;;;;28.20;13.65;;;11.20;93.00;;;;;;5114372;28;20161;-76
2023/04/17 05:23:52;;;;;;;29.13;13.07;;;11.20;93.00;;;;;;5114236;28;20217;-76
2023/04/17 05:26:20;;;;;;;31.65;13.18;;;11.20;93.00;;;;;;5113330;28;20055;-76
2023/04/17 05:28:46;;;;;;;34.47;13.50;;;11.20;92.90;;;;;;5114323;28;20024;-76
2023/04/17 05:31:13;;;;;;;29.63;12.88;;;11.20;92.90;;;;;;5114224;28;20031;-76
2023/04/17 05:33:39;;;;;;;29.35;12.68;;;11.20;92.90;;;;;;5114060;28;20080;-76
2023/04/17 05:36:05;;;;;;;30.88;13.98;;;11.10;92.90;;;;;;5114158;28;20035;-76
2023/04/17 05:38:31;;;;;;;32.63;13.27;;;11.10;92.90;;;;;;5113126;28;20054;-76
2023/04/17 05:40:57;;;;;;;34.33;13.80;;;11.10;92.90;;;;;;5113128;28;20028;-77
2023/04/17 05:43:22;;;;;;;31.15;13.82;;;11.10;92.90;;;;;;5113611;28;20087;-77
2023/04/17 05:45:48;;;;;;;31.70;13.75;;;11.20;92.90;;;;;;5113972;28;20028;-76
2023/04/17 05:48:14;;;;;;;31.42;13.48;;;11.10;92.90;;;;;;5113955;28;20024;-76
2023/04/17 05:50:39;;;;;;;26.77;13.02;;;11.10;92.90;;;;;;5095803;28;20154;-76
2023/04/17 05:53:05;;;;;;;29.70;13.95;;;11.10;92.90;;;;;;5112768;28;20024;-76
2023/04/17 05:55:31;;;;;;;26.33;13.27;;;11.10;92.90;;;;;;5096069;28;20034;-76
2023/04/17 05:57:57;;;;;;;29.38;14.15;;;11.10;92.90;;;;;;5113818;28;20024;-76
2023/04/17 06:00:23;;;;;;;31.48;13.77;;;11.10;92.90;;;;;;5113719;28;20472;-76
2023/04/17 06:02:49;;;;;;;32.90;13.48;;;11.20;92.90;;;;;;5113684;28;20024;-76
2023/04/17 06:05:16;;;;;;;27.00;13.65;;;11.20;92.90;;;;;;5113747;28;20028;-76
2023/04/17 06:07:42;;;;;;;30.27;13.85;;;11.20;92.90;;;;;;5113700;28;20020;-76
2023/04/17 06:10:09;;;;;;;30.67;12.95;;;11.20;92.80;;;;;;5112596;28;20096;-76
2023/04/17 06:12:36;;;;;;;29.45;13.60;;;11.20;92.90;;;;;;5113778;28;20032;-76
2023/04/17 06:15:07;;;;;;;30.48;13.27;;;11.20;92.90;;;;;;5113665;28;20024;-76
2023/04/17 06:17:34;;;;;;;33.50;14.33;;;11.20;92.80;;;;;;5113722;28;20024;-76
2023/04/17 06:20:00;;;;;;;30.63;13.85;;;11.20;92.90;;;;;;5113685;28;20020;-76
2023/04/17 06:22:26;;;;;;;30.10;13.90;;;11.20;92.90;;;;;;5112543;28;20032;-76
2023/04/17 06:24:51;;;;;;;31.60;13.65;;;11.20;92.90;;;;;;5113453;28;20024;-76
2023/04/17 06:27:17;;;;;;;28.77;13.50;;;11.20;92.90;;;;;;5113429;28;20039;-76
2023/04/17 06:29:43;;;;;;;29.35;13.60;;;11.20;92.90;;;;;;5113412;28;20040;-76
2023/04/17 06:32:08;;;;;;;29.08;12.85;;;11.20;92.90;;;;;;5113318;28;20035;-77
2023/04/17 06:34:34;;;;;;;32.90;14.27;;;11.20;93.00;;;;;;5113179;28;20054;-76
2023/04/17 06:37:00;;;;;;;29.73;13.95;;;11.20;92.90;;;;;;5112399;28;20038;-76
2023/04/17 06:39:26;;;;;;;34.05;13.75;;;11.20;92.90;;;;;;5113378;28;20072;-77
2023/04/17 06:41:51;;;;;;;34.78;15.05;;;11.20;93.30;;;;;;5113334;28;20012;-77
2023/04/17 06:44:17;;;;;;;31.10;13.75;;;11.20;93.00;;;;;;5113493;28;20024;-76
2023/04/17 06:46:43;;;;;;;33.97;14.18;;;11.20;93.00;;;;;;5113245;28;20040;-76
2023/04/17 06:49:10;;;;;;;34.17;15.65;;;11.20;93.00;;;;;;5113391;28;20059;-76
2023/04/17 06:51:36;;;;;;;37.03;14.80;;;11.20;93.10;;;;;;5112151;28;20119;-76
2023/04/17 06:54:01;;;;;;;33.83;14.50;;;11.20;93.10;;;;;;5112430;28;20035;-76
2023/04/17 06:56:27;;;;;;;31.77;14.00;;;11.30;93.00;;;;;;5082562;28;20487;-76
2023/04/17 06:58:53;;;;;;;32.72;14.57;;;11.30;93.00;;;;;;5117154;28;20047;-76
2023/04/17 07:01:19;;;;;;;31.00;15.38;;;11.30;93.00;;;;;;5116075;28;20032;-76
2023/04/17 07:03:45;;;;;;;37.72;15.25;;;11.30;92.90;;;;;;5117074;28;20031;-76
2023/04/17 07:06:11;;;;;;;35.58;15.05;;;11.30;92.90;;;;;;5116067;28;20114;-76
2023/04/17 07:08:37;;;;;;;34.15;14.90;;;11.20;92.90;;;;;;5116963;28;20036;-76
2023/04/17 07:11:03;;;;;;;35.10;15.13;;;11.30;93.00;;;;;;5116890;28;20039;-76
2023/04/17 07:13:31;;;;;;;36.65;14.90;;;11.30;93.00;;;;;;5116826;28;20036;-76
2023/04/17 07:15:58;;;;;;;34.08;14.45;;;11.30;93.00;;;;;;5116879;28;20030;-76
2023/04/17 07:18:25;;;;;;;32.38;15.05;;;11.30;93.00;;;;;;5115782;28;20028;-76
2023/04/17 07:20:51;;;;;;;30.25;14.55;;;11.40;93.00;;;;;;5115807;28;20054;-76
2023/04/17 07:23:16;;;;;;;36.05;14.75;;;11.40;93.00;;;;;;5116729;28;20051;-76
2023/04/17 07:25:42;;;;;;;36.13;14.65;;;11.50;92.90;;;;;;5098649;28;20036;-76
2023/04/17 07:28:08;;;;;;;35.33;14.90;;;11.50;92.90;;;;;;5116581;28;20028;-76
2023/04/17 07:30:34;;;;;;;32.58;15.13;;;11.50;92.90;;;;;;5116567;28;20021;-76
2023/04/17 07:33:00;;;;;;;31.15;14.23;;;11.50;92.90;;;;;;5116596;28;20047;-76
2023/04/17 07:35:26;;;;;;;37.45;15.52;;;11.50;92.90;;;;;;5115470;28;20025;-76
2023/04/17 07:37:52;;;;;;;33.30;15.70;;;11.50;93.20;;;;;;5116424;28;20024;-76
2023/04/17 07:40:18;;;;;;;30.75;13.70;;;11.50;92.80;;;;;;5116385;28;20070;-76
2023/04/17 07:42:44;;;;;;;36.22;15.60;;;11.50;92.90;;;;;;5115385;28;20008;-76
2023/04/17 07:45:10;;;;;;;33.92;15.23;;;11.50;92.80;;;;;;5115318;28;20024;-76
2023/04/17 07:47:36;;;;;;;35.53;15.35;;;11.50;92.90;;;;;;5116257;28;20028;-76
2023/04/17 07:50:02;;;;;;;34.95;16.13;;;11.60;92.90;;;;;;5116300;28;20085;-76
2023/04/17 07:52:28;;;;;;;32.42;15.55;;;11.60;92.90;;;;;;5115991;28;20056;-76
2023/04/17 07:54:55;;;;;;;36.15;15.70;;;11.70;92.70;;;;;;5115992;28;20025;-76
2023/04/17 07:57:22;;;;;;;35.97;15.38;;;11.70;92.60;;;;;;5116057;28;20027;-76
2023/04/17 07:59:47;;;;;;;33.08;14.63;;;11.70;92.60;;;;;;5116007;28;20103;-76
2023/04/17 08:02:14;;;;;;;35.08;15.75;;;11.70;92.60;;;;;;5115036;28;20028;-77
2023/04/17 08:04:40;;;;;;;35.78;15.95;;;11.70;92.60;;;;;;5114959;28;20020;-76
2023/04/17 08:07:09;;;;;;;36.95;15.23;;;11.70;92.70;;;;;;5115548;28;20024;-76
2023/04/17 08:09:36;;;;;;;34.55;16.00;;;11.70;92.70;;;;;;5115828;28;20017;-76
2023/04/17 08:12:01;;;;;;;35.63;15.35;;;11.60;92.60;;;;;;5115767;28;20027;-76
2023/04/17 08:14:27;;;;;;;38.58;15.70;;;11.60;92.60;;;;;;5115686;28;20028;-76
2023/04/17 08:16:53;;;;;;;36.70;16.60;;;11.60;92.50;;;;;;5114581;28;20096;-76
2023/04/17 08:19:19;;;;;;;41.25;15.75;;;11.60;92.40;;;;;;5115617;28;20024;-76
2023/04/17 08:21:48;;;;;;;32.20;14.95;;;11.60;92.40;;;;;;5115694;28;20051;-76
2023/04/17 08:24:15;;;;;;;34.92;16.10;;;11.60;92.40;;;;;;5115543;28;20050;-76
2023/04/17 08:26:40;;;;;;;41.00;17.20;;;11.70;92.40;;;;;;5115570;28;20039;-76
2023/04/17 08:29:07;;;;;;;36.13;15.90;;;11.70;92.40;;;;;;5115385;28;20052;-77
2023/04/17 08:31:35;;;;;;;38.85;15.52;;;11.70;92.50;;;;;;5115390;28;20097;-76
2023/04/17 08:34:02;;;;;;;38.63;16.30;;;11.70;92.50;;;;;;5115138;28;20023;-76
2023/04/17 08:36:27;;;;;;;35.20;16.02;;;11.70;92.60;;;;;;5114240;28;20054;-76
2023/04/17 08:38:53;;;;;;;36.20;16.17;;;11.80;92.60;;;;;;5114148;28;20028;-76
2023/04/17 08:41:23;;;;;;;39.60;16.95;;;11.80;92.60;;;;;;5115219;28;20032;-76
2023/04/17 08:43:49;;;;;;;42.50;17.05;;;11.90;92.60;;;;;;5115098;28;20107;-77
2023/04/17 08:46:17;;;;;;;39.47;16.58;;;11.90;92.50;;;;;;5115033;28;20472;-76
2023/04/17 08:48:43;;;;;;;37.10;17.30;;;12.00;92.40;;;;;;5114129;28;20059;-76
2023/04/17 08:51:09;;;;;;;40.58;16.95;;;12.00;92.30;;;;;;5114837;28;20056;-77
2023/04/17 08:53:34;;;;;;;38.85;17.73;;;12.10;92.20;;;;;;5113845;28;20024;-77
2023/04/17 08:56:05;;;;;;;41.35;16.85;;;12.10;92.30;;;;;;5115033;28;20080;-76
2023/04/17 08:58:35;;;;;;;37.22;17.30;;;12.10;92.10;;;;;;5114694;28;20087;-76
2023/04/17 09:01:12;;;;;;;37.78;17.80;;;12.10;92.10;;;;;;5114797;28;20028;-76
2023/04/17 09:03:47;;;;;;;36.58;17.60;;;12.20;92.10;;;;;;5114844;28;20055;-76
2023/04/17 09:06:14;;;;;;;38.80;18.33;;;12.20;91.90;;;;;;5114861;28;20024;-77
2023/04/17 09:09:00;;;;;;;33.75;15.88;;;12.20;91.80;;;;;;5114680;28;20031;-77
2023/04/17 09:11:26;;;;;;;36.67;17.27;;;12.20;91.90;;;;;;5114608;28;20046;-77
2023/04/17 09:13:53;;;;;;;37.50;17.50;;;12.30;91.90;;;;;;5113430;28;20032;-77
2023/04/17 09:16:19;;;;;;;38.80;16.98;;;12.30;91.80;;;;;;5114445;28;20016;-77
2023/04/17 09:18:45;;;;;;;38.63;16.88;;;12.40;91.70;;;;;;5113925;28;20039;-76
2023/04/17 09:21:12;;;;;;;35.53;17.33;;;12.50;91.90;;;;;;5114312;28;20047;-76
2023/04/17 09:23:49;;;;;;;36.28;16.88;;;12.60;92.00;;;;;;5114386;28;20058;-76
2023/04/17 09:26:20;;;;;;;35.70;17.67;;;12.70;91.60;;;;;;5114318;28;20058;-76
2023/04/17 09:29:12;;;;;;;37.55;18.65;;;12.70;91.40;;;;;;5114344;28;20027;-76
2023/04/17 09:31:41;;;;;;;35.57;16.63;;;12.70;90.90;;;;;;5114323;28;20020;-76
2023/04/17 09:34:12;;;;;;;41.72;17.70;;;12.70;90.90;;;;;;5113074;28;20039;-77
2023/04/17 09:36:40;;;;;;;37.25;16.83;;;12.70;91.00;;;;;;5114208;28;20035;-77
2023/04/17 09:39:19;;;;;;;43.88;17.92;;;12.70;91.10;;;;;;5114223;28;20023;-77
2023/04/17 09:41:45;;;;;;;37.55;17.42;;;12.70;90.90;;;;;;5113968;28;20022;-77
2023/04/17 09:44:11;;;;;;;37.47;18.27;;;12.70;90.80;;;;;;5114051;28;20500;-77
2023/04/17 09:46:47;;;;;;;36.53;17.60;;;12.70;90.70;;;;;;5113938;28;20032;-77
2023/04/17 09:49:22;;;;;;;39.75;17.90;;;12.70;90.70;;;;;;5114012;28;20035;-77
2023/04/17 09:51:49;;;;;;;36.45;17.02;;;12.70;90.70;;;;;;5113768;28;20044;-77
2023/04/17 09:54:16;;;;;;;37.60;17.58;;;12.80;90.70;;;;;;5113790;28;20066;-77
2023/04/17 09:56:42;;;;;;;35.80;17.98;;;12.90;90.50;;;;;;5112748;28;20041;-77
2023/04/17 09:59:09;;;;;;;38.65;17.60;;;13.00;90.20;;;;;;5113784;28;20028;-77
2023/04/17 10:01:36;;;;;;;35.10;16.58;;;13.10;90.10;;;;;;5113689;28;20020;-77
2023/04/17 10:04:03;;;;;;;31.05;15.80;;;13.20;90.30;;;;;;5113699;28;20054;-77
2023/04/17 10:06:33;;;;;;;35.33;16.42;;;13.30;90.20;;;;;;5113667;28;20024;-77
2023/04/17 10:08:59;;;;;;;32.28;15.77;;;13.30;89.90;;;;;;5113636;28;20028;-77
2023/04/17 10:11:29;;;;;;;39.97;18.30;;;13.40;89.80;;;;;;5113603;28;20042;-77
2023/04/17 10:14:10;;;;;;;36.20;16.92;;;13.50;89.70;;;;;;5113520;28;20042;-77
2023/04/17 10:16:37;;;;;;;40.25;17.08;;;13.50;89.20;;;;;;5113672;28;20084;-76
2023/04/17 10:19:22;;;;;;;37.92;16.88;;;13.60;89.20;;;;;;5112618;28;20097;-77
2023/04/17 10:22:19;;;;;;;33.95;15.55;;;13.70;87.90;;;;;;5112441;28;20016;-76
2023/04/17 10:24:50;;;;;;;33.22;16.50;;;13.70;88.30;;;;;;5113322;28;20028;-77
2023/04/17 10:27:25;;;;;;;33.00;16.08;;;13.80;88.50;;;;;;5113413;28;20046;-76
2023/04/17 10:29:58;;;;;;;34.45;16.40;;;13.80;87.90;;;;;;5116935;28;20024;-76
2023/04/17 10:32:27;;;;;;;31.05;15.82;;;13.80;87.70;;;;;;5117675;28;20091;-76
2023/04/17 10:34:54;;;;;;;34.72;16.67;;;13.90;87.40;;;;;;5117487;28;20024;-76
2023/04/17 10:37:21;;;;;;;31.55;16.13;;;13.80;87.20;;;;;;5117509;28;20024;-76
2023/04/17 10:39:57;;;;;;;32.65;15.50;;;13.90;87.30;;;;;;5117564;28;20476;-77
2023/04/17 10:42:24;;;;;;;33.40;16.00;;;13.90;86.70;;;;;;5116426;28;20021;-77
2023/04/17 10:44:56;;;;;;;33.55;16.42;;;13.90;86.80;;;;;;5117479;28;20074;-77
2023/04/17 10:47:27;;;;;;;36.83;16.45;;;13.90;87.00;;;;;;5117380;28;20453;-77
2023/04/17 10:49:54;;;;;;;37.85;17.55;;;14.00;87.20;;;;;;5117360;28;20073;-76
2023/04/17 10:52:37;;;;;;;34.30;16.50;;;14.00;87.00;;;;;;5117046;28;20078;-77
2023/04/17 10:55:13;;;;;;;31.77;15.63;;;14.10;86.80;;;;;;5117221;28;20028;-77
2023/04/17 10:57:54;;;;;;;32.60;16.17;;;14.00;85.60;;;;;;5117212;28;20020;-76
2023/04/17 11:00:28;;;;;;;31.10;15.95;;;14.00;85.30;;;;;;5117346;28;20103;-77
2023/04/17 11:02:54;;;;;;;34.35;16.75;;;14.10;86.30;;;;;;5117005;28;20042;-77
2023/04/17 11:05:19;;;;;;;35.88;17.50;;;14.10;85.90;;;;;;5117072;28;20020;-76
2023/04/17 11:07:50;;;;;;;35.50;16.88;;;14.20;86.10;;;;;;5117091;28;20103;-77
2023/04/17 11:10:18;;;;;;;33.58;16.85;;;14.10;85.40;;;;;;5117016;28;20059;-77
2023/04/17 11:12:46;;;;;;;34.83;17.35;;;14.20;85.20;;;;;;5116851;28;20039;-77
2023/04/17 11:15:12;;;;;;;34.40;17.60;;;14.20;85.60;;;;;;5116828;28;20024;-77
2023/04/17 11:17:46;;;;;;;30.75;15.23;;;14.30;85.90;;;;;;5116744;28;20027;-77
2023/04/17 11:20:11;;;;;;;30.60;15.85;;;14.40;85.20;;;;;;5115860;28;20083;-77
2023/04/17 11:22:38;;;;;;;32.80;15.77;;;14.40;85.10;;;;;;5116659;28;20086;-77
2023/04/17 11:25:03;;;;;;;32.97;16.30;;;14.50;85.00;;;;;;5116652;28;20035;-77
2023/04/17 11:27:29;;;;;;;28.90;15.25;;;14.60;85.10;;;;;;5116609;28;20025;-77
2023/04/17 11:29:55;;;;;;;29.45;14.90;;;14.70;83.70;;;;;;5115625;28;20537;-77
2023/04/17 11:32:20;;;;;;;32.45;14.73;;;14.80;82.60;;;;;;5116461;28;20036;-77
2023/04/17 11:34:46;;;;;;;30.65;16.17;;;14.70;81.00;;;;;;5116358;28;20028;-77
2023/04/17 11:37:15;;;;;;;31.27;15.07;;;14.70;82.60;;;;;;5116375;28;20032;-76
2023/04/17 11:39:44;;;;;;;25.42;14.13;;;14.70;81.60;;;;;;5115903;28;20028;-77
2023/04/17 11:42:10;;;;;;;25.83;13.50;;;14.70;81.00;;;;;;5116269;28;20028;-76
2023/04/17 11:44:35;;;;;;;27.60;14.35;;;14.70;80.30;;;;;;5116361;28;20039;-76
2023/04/17 11:47:02;;;;;;;27.40;13.82;;;14.70;81.20;;;;;;5116167;28;20130;-76
2023/04/17 11:49:36;;;;;;;29.42;14.70;;;14.90;81.40;;;;;;5116242;28;20020;-76
2023/04/17 11:52:09;;;;;;;23.58;13.07;;;15.10;80.50;;;;;;5114827;28;20086;-76
2023/04/17 11:54:36;;;;;;;27.52;14.23;;;15.20;79.10;;;;;;5116031;28;20032;-76
2023/04/17 11:57:10;;;;;;;23.90;13.32;;;15.40;78.10;;;;;;5116014;28;20025;-77
2023/04/17 11:59:37;;;;;;;24.40;13.05;;;15.50;77.20;;;;;;5116109;28;20079;-77
2023/04/17 12:02:07;;;;;;;21.02;12.00;;;15.70;76.60;;;;;;5115814;28;20032;-77
2023/04/17 12:04:34;;;;;;;22.63;12.48;;;15.90;77.40;;;;;;5114842;28;20047;-77
2023/04/17 12:07:03;;;;;;;21.52;12.40;;;16.10;76.30;;;;;;5115783;28;20082;-77
2023/04/17 12:09:33;;;;;;;25.10;13.73;;;16.30;74.70;;;;;;5115744;28;20025;-77
2023/04/17 12:12:02;;;;;;;26.20;13.88;;;16.40;73.70;;;;;;5115785;28;20028;-77
2023/04/17 12:14:28;;;;;;;23.67;12.52;;;16.50;73.20;;;;;;5115621;28;20080;-77
2023/04/17 12:16:54;;;;;;;23.05;13.00;;;16.50;74.00;;;;;;5115565;28;20039;-77
2023/04/17 12:19:19;;;;;;;19.92;12.27;;;16.60;73.80;;;;;;5114743;28;20039;-77
2023/04/17 12:21:46;;;;;;;18.58;12.13;;;16.70;73.80;;;;;;5114613;28;20036;-77
2023/04/17 12:24:12;;;;;;;20.58;12.20;;;16.90;74.20;;;;;;5115604;28;20023;-77
2023/04/17 12:26:49;;;;;;;25.60;13.32;;;17.00;74.00;;;;;;5115186;28;20035;-77